Time;durP1;ratioP1;P1;durP2;ratioP2;P2;SDS_P1;SDS_P2;PMS_P1;PMS_P2;Temp;Humidity;BMP_temperature;BMP_pressure;BME280_temperature;BME280_humidity;BME280_pressure;Samples;Min_cycle;Max_cycle;Signal;HPM_P1;HPM_P2
2022/06/04 00:00:32;;;;;;;0.70;0.50;;;18.60;99.90;;;;;;5032728;28;20192;-81
2022/06/04 00:02:58;;;;;;;0.40;0.40;;;18.60;99.90;;;;;;5033972;28;20797;-81
2022/06/04 00:05:30;;;;;;;0.67;0.63;;;18.50;99.90;;;;;;5033325;28;20221;-81
2022/06/04 00:07:58;;;;;;;0.77;0.77;;;18.30;99.90;;;;;;5032805;28;20317;-81
2022/06/04 00:15:55;;;;;;;0.40;0.40;;;18.10;99.90;;;;;;5031736;28;20241;-80
2022/06/04 00:18:22;;;;;;;0.80;0.80;;;18.10;99.90;;;;;;5033417;28;20185;-80
2022/06/04 00:20:49;;;;;;;0.50;0.50;;;18.10;99.90;;;;;;5034368;28;20187;-81
2022/06/04 00:23:15;;;;;;;0.57;0.57;;;18.20;99.90;;;;;;5033549;28;20182;-81
2022/06/04 00:25:47;;;;;;;0.93;0.70;;;18.30;99.90;;;;;;5034116;28;20201;-80
2022/06/04 00:28:14;;;;;;;0.67;0.53;;;18.40;99.90;;;;;;5032540;28;20620;-81
2022/06/04 00:30:41;;;;;;;0.53;0.53;;;18.30;99.90;;;;;;5032973;28;20183;-80
2022/06/04 00:33:07;;;;;;;0.70;0.57;;;18.20;99.90;;;;;;5030504;28;20202;-81
2022/06/04 00:35:34;;;;;;;0.70;0.50;;;18.00;99.90;;;;;;5032238;28;20237;-81
2022/06/04 00:38:01;;;;;;;1.07;0.63;;;18.00;99.90;;;;;;5032193;28;20185;-81
2022/06/04 00:40:45;;;;;;;0.40;0.40;;;18.00;99.90;;;;;;5032441;28;20193;-80
2022/06/04 00:43:11;;;;;;;0.63;0.63;;;18.20;99.90;;;;;;5031019;28;20218;-81
2022/06/04 00:45:36;;;;;;;0.57;0.57;;;18.40;99.90;;;;;;5031651;28;21846;-80
2022/06/04 00:48:05;;;;;;;0.77;0.77;;;18.60;99.90;;;;;;5032700;28;20218;-80
2022/06/04 00:50:36;;;;;;;0.60;0.60;;;18.70;99.90;;;;;;5030808;28;20288;-81
2022/06/04 00:53:06;;;;;;;0.50;0.50;;;18.70;99.90;;;;;;5031877;28;20187;-81
2022/06/04 00:56:00;;;;;;;1.00;0.70;;;18.70;99.90;;;;;;5030628;28;20241;-81
2022/06/04 00:58:31;;;;;;;0.40;0.40;;;18.60;99.90;;;;;;5025234;28;20212;-80
2022/06/04 01:01:04;;;;;;;0.40;0.40;;;18.50;99.90;;;;;;5031108;28;20190;-81
2022/06/04 01:04:06;;;;;;;1.37;0.67;;;18.20;99.90;;;;;;5032015;28;20187;-81
2022/06/04 01:06:53;;;;;;;0.60;0.60;;;17.90;99.90;;;;;;5032324;28;20231;-80
2022/06/04 01:09:35;;;;;;;0.80;0.77;;;17.70;99.90;;;;;;5031407;28;20178;-80
2022/06/04 01:12:10;;;;;;;1.20;1.10;;;17.70;99.90;;;;;;5028697;28;20240;-81
2022/06/04 01:15:13;;;;;;;1.00;0.63;;;17.60;99.90;;;;;;5031238;28;20198;-80
2022/06/04 01:17:56;;;;;;;0.60;0.60;;;17.70;99.90;;;;;;5030052;28;20220;-81
2022/06/04 01:20:35;;;;;;;0.83;0.83;;;18.00;99.90;;;;;;5030713;28;20186;-80
2022/06/04 01:23:06;;;;;;;1.60;1.00;;;18.10;99.90;;;;;;5031835;28;20256;-81
2022/06/04 01:25:41;;;;;;;0.80;0.53;;;18.20;99.90;;;;;;5032240;28;20305;-80
2022/06/04 01:28:09;;;;;;;0.30;0.30;;;18.40;99.90;;;;;;5031480;28;20248;-80
2022/06/04 01:30:48;;;;;;;0.70;0.47;;;18.50;99.90;;;;;;5030548;28;20194;-81
2022/06/04 01:33:23;;;;;;;0.50;0.50;;;18.50;99.90;;;;;;5029198;28;20653;-81
2022/06/04 01:36:01;;;;;;;0.80;0.77;;;18.60;99.90;;;;;;5030887;28;20206;-80
2022/06/04 01:38:41;;;;;;;0.83;0.83;;;18.60;99.90;;;;;;5032885;28;20189;-81
2022/06/04 01:41:19;;;;;;;0.20;0.20;;;18.60;99.90;;;;;;5035457;28;20234;-80
2022/06/04 01:43:54;;;;;;;3.77;0.90;;;18.60;99.90;;;;;;5035865;28;20265;-80
2022/06/04 01:46:22;;;;;;;0.67;0.60;;;18.50;99.90;;;;;;5034399;28;20213;-81
2022/06/04 01:48:52;;;;;;;0.40;0.40;;;18.40;99.90;;;;;;5037580;28;20197;-81
2022/06/04 01:51:24;;;;;;;0.60;0.60;;;18.50;99.90;;;;;;5034414;28;20184;-80
2022/06/04 01:53:59;;;;;;;0.63;0.57;;;18.50;99.90;;;;;;5034015;28;20197;-81
2022/06/04 01:56:34;;;;;;;1.33;0.80;;;18.60;99.90;;;;;;5034323;28;20211;-81
2022/06/04 01:59:14;;;;;;;0.53;0.53;;;18.60;99.90;;;;;;5036505;28;20185;-80
2022/06/04 02:01:41;;;;;;;1.13;1.00;;;18.60;99.90;;;;;;5036797;28;20206;-81
2022/06/04 02:04:13;;;;;;;0.60;0.60;;;18.60;99.90;;;;;;5030964;28;20562;-81
2022/06/04 02:09:39;;;;;;;0.50;0.50;;;18.30;99.90;;;;;;5035452;28;20214;-80
2022/06/04 02:12:07;;;;;;;0.60;0.60;;;18.30;99.90;;;;;;5032299;28;20249;-81
2022/06/04 02:14:33;;;;;;;1.10;1.00;;;18.30;99.90;;;;;;5036194;28;20676;-81
2022/06/04 02:17:05;;;;;;;2.30;0.80;;;18.30;99.90;;;;;;5033072;28;20263;-81
2022/06/04 02:19:30;;;;;;;1.37;0.73;;;18.10;99.90;;;;;;5034465;28;20182;-80
2022/06/04 02:21:56;;;;;;;1.10;1.10;;;17.80;99.90;;;;;;5036099;28;20201;-80
2022/06/04 02:24:22;;;;;;;0.70;0.70;;;17.60;99.90;;;;;;5035889;28;20218;-81
2022/06/04 02:26:48;;;;;;;0.90;0.70;;;17.50;99.90;;;;;;5035101;28;20214;-80
2022/06/04 02:29:14;;;;;;;0.70;0.70;;;17.50;99.90;;;;;;5034668;28;20186;-81
2022/06/04 02:31:49;;;;;;;0.93;0.93;;;17.40;99.90;;;;;;5033163;28;20190;-81
2022/06/04 02:34:25;;;;;;;0.50;0.50;;;17.40;99.90;;;;;;5033150;28;20184;-80
2022/06/04 02:37:12;;;;;;;1.03;0.97;;;17.40;99.90;;;;;;5033974;28;20223;-81
2022/06/04 02:39:49;;;;;;;0.80;0.80;;;17.30;99.90;;;;;;5034913;28;20182;-81
2022/06/04 02:42:34;;;;;;;0.67;0.60;;;17.30;99.90;;;;;;5031991;28;20196;-80
2022/06/04 02:45:18;;;;;;;0.67;0.67;;;17.20;99.90;;;;;;5031902;28;20264;-80
2022/06/04 02:48:12;;;;;;;1.10;0.77;;;17.30;99.90;;;;;;5033684;28;20372;-80
2022/06/04 02:50:54;;;;;;;0.67;0.67;;;17.40;99.90;;;;;;5033511;28;20198;-81
2022/06/04 02:53:20;;;;;;;0.60;0.60;;;17.40;99.90;;;;;;5035580;28;20189;-79
2022/06/04 02:55:53;;;;;;;0.50;0.50;;;17.40;99.90;;;;;;5035321;28;20589;-81
2022/06/04 02:58:21;;;;;;;0.97;0.97;;;17.40;99.90;;;;;;5034442;28;20187;-81
2022/06/04 03:00:50;;;;;;;0.90;0.90;;;17.30;99.90;;;;;;5034562;28;20194;-82
2022/06/04 03:03:16;;;;;;;0.90;0.90;;;17.30;99.90;;;;;;5035616;28;20216;-82
2022/06/04 03:06:00;;;;;;;0.47;0.47;;;17.30;99.90;;;;;;5032817;28;20702;-81
2022/06/04 03:08:28;;;;;;;0.30;0.30;;;17.50;99.90;;;;;;5036033;28;21111;-81
2022/06/04 03:10:54;;;;;;;0.60;0.60;;;17.50;99.90;;;;;;5034243;28;20278;-81
2022/06/04 03:13:20;;;;;;;0.63;0.63;;;17.60;99.90;;;;;;5033384;28;20190;-80
2022/06/04 03:15:47;;;;;;;0.57;0.57;;;17.70;99.90;;;;;;5031131;28;20711;-81
2022/06/04 03:18:13;;;;;;;0.60;0.60;;;17.60;99.90;;;;;;5034228;28;20198;-82
2022/06/04 03:20:39;;;;;;;0.63;0.63;;;17.70;99.90;;;;;;5035548;28;20186;-81
2022/06/04 03:23:06;;;;;;;0.63;0.63;;;17.90;99.90;;;;;;5031922;28;20201;-81
2022/06/04 03:25:33;;;;;;;1.00;0.93;;;17.90;99.90;;;;;;5030944;28;20279;-80
2022/06/04 03:27:59;;;;;;;0.77;0.60;;;18.00;99.90;;;;;;5031103;28;20237;-81
2022/06/04 03:30:26;;;;;;;0.87;0.73;;;18.10;99.90;;;;;;5034376;28;21112;-81
2022/06/04 03:32:51;;;;;;;1.03;1.00;;;18.10;99.90;;;;;;5031939;28;20667;-80
2022/06/04 03:35:17;;;;;;;1.83;1.20;;;18.10;99.90;;;;;;5032733;28;20210;-81
2022/06/04 03:37:43;;;;;;;0.97;0.97;;;18.20;99.90;;;;;;5022380;28;20187;-81
2022/06/04 03:40:10;;;;;;;1.90;1.53;;;18.30;99.90;;;;;;5029147;28;20190;-81
2022/06/04 03:42:35;;;;;;;1.20;0.93;;;18.70;99.90;;;;;;5031674;28;20913;-82
2022/06/04 03:45:01;;;;;;;1.37;1.17;;;18.70;99.90;;;;;;5031368;28;20210;-81
2022/06/04 03:47:26;;;;;;;1.67;1.00;;;18.60;99.90;;;;;;5034072;28;20214;-81
2022/06/04 03:49:53;;;;;;;1.57;1.47;;;18.50;99.90;;;;;;5031445;28;20191;-81
2022/06/04 03:52:19;;;;;;;1.43;1.33;;;18.50;99.90;;;;;;5030655;28;20225;-81
2022/06/04 03:54:54;;;;;;;0.90;0.87;;;18.50;99.90;;;;;;5031826;28;20237;-81
2022/06/04 03:57:41;;;;;;;1.20;1.10;;;18.50;99.90;;;;;;5033446;28;20196;-81
2022/06/04 04:00:13;;;;;;;0.90;0.70;;;18.40;99.90;;;;;;5032881;28;20190;-82
2022/06/04 04:02:44;;;;;;;0.83;0.83;;;18.40;99.90;;;;;;5034175;28;20605;-81
2022/06/04 04:05:12;;;;;;;1.00;0.93;;;18.40;99.90;;;;;;5029510;28;20226;-81
2022/06/04 04:07:38;;;;;;;2.20;1.00;;;18.50;99.90;;;;;;5030189;28;20634;-81
2022/06/04 04:10:06;;;;;;;1.43;0.97;;;18.50;99.90;;;;;;5031725;28;20190;-81
2022/06/04 04:12:32;;;;;;;0.90;0.90;;;18.50;99.90;;;;;;5032119;28;20190;-82
2022/06/04 04:14:57;;;;;;;1.20;1.17;;;18.60;99.90;;;;;;5034518;28;20225;-82
2022/06/04 04:17:23;;;;;;;0.73;0.73;;;18.60;99.90;;;;;;5031792;28;20190;-81
2022/06/04 04:19:49;;;;;;;1.70;0.70;;;18.70;99.90;;;;;;5031855;28;20195;-81
2022/06/04 04:22:15;;;;;;;0.87;0.63;;;18.70;99.90;;;;;;5034412;28;20806;-81
2022/06/04 04:24:41;;;;;;;0.70;0.70;;;18.80;99.90;;;;;;5033148;28;20217;-82
2022/06/04 04:27:07;;;;;;;0.80;0.80;;;18.80;99.90;;;;;;5031563;28;20210;-81
2022/06/04 04:29:32;;;;;;;0.77;0.60;;;18.90;99.90;;;;;;5033273;28;20177;-81
2022/06/04 04:31:58;;;;;;;1.60;1.47;;;19.00;99.90;;;;;;5035912;28;20675;-81
2022/06/04 04:34:24;;;;;;;0.83;0.83;;;19.10;99.90;;;;;;5034510;28;20293;-81
2022/06/04 04:36:49;;;;;;;1.30;1.20;;;19.40;99.90;;;;;;5040417;28;20610;-81
2022/06/04 04:39:15;;;;;;;0.63;0.63;;;19.60;99.90;;;;;;5036529;28;20272;-81
2022/06/04 04:41:40;;;;;;;1.47;1.37;;;19.90;99.90;;;;;;5036696;28;20197;-81
2022/06/04 04:44:06;;;;;;;1.03;0.97;;;20.30;99.90;;;;;;5033466;28;20256;-80
2022/06/04 04:46:32;;;;;;;1.13;1.13;;;20.50;99.90;;;;;;5037005;28;20185;-83
2022/06/04 04:48:57;;;;;;;0.97;0.70;;;20.50;99.90;;;;;;5035859;28;20189;-83
2022/06/04 04:51:25;;;;;;;0.77;0.77;;;20.40;99.90;;;;;;5037611;28;20202;-82
2022/06/04 04:53:51;;;;;;;0.50;0.50;;;20.40;99.90;;;;;;5034468;28;20185;-81
2022/06/04 04:56:20;;;;;;;0.93;0.93;;;20.20;99.90;;;;;;5033644;28;20347;-81
2022/06/04 04:58:45;;;;;;;1.17;1.07;;;20.30;99.90;;;;;;5034318;28;20185;-81
2022/06/04 05:01:23;;;;;;;0.93;0.80;;;20.30;99.90;;;;;;5031853;28;20194;-81
2022/06/04 05:03:49;;;;;;;2.13;1.00;;;20.40;99.90;;;;;;5051923;28;20186;-81
2022/06/04 05:06:17;;;;;;;1.10;1.00;;;20.40;99.90;;;;;;5032787;28;20228;-81
2022/06/04 05:08:44;;;;;;;1.50;1.10;;;20.50;99.90;;;;;;5033088;28;20225;-81
2022/06/04 05:11:15;;;;;;;1.67;1.27;;;20.40;99.90;;;;;;5032660;28;20237;-83
2022/06/04 05:13:41;;;;;;;1.00;0.80;;;20.40;99.90;;;;;;5033527;28;20206;-84
2022/06/04 05:16:07;;;;;;;1.20;1.10;;;20.40;99.90;;;;;;5034864;28;20231;-84
2022/06/04 05:18:33;;;;;;;1.97;1.60;;;20.20;99.90;;;;;;5033785;28;20242;-84
2022/06/04 05:21:26;;;;;;;1.60;1.13;;;20.20;99.90;;;;;;5034861;28;20239;-83
2022/06/04 05:23:54;;;;;;;0.73;0.73;;;20.20;99.90;;;;;;5035507;28;20194;-83
2022/06/04 05:26:20;;;;;;;1.40;1.30;;;20.20;99.90;;;;;;5029922;28;20213;-82
2022/06/04 05:28:46;;;;;;;1.47;1.00;;;20.20;99.90;;;;;;5037437;28;20639;-82
2022/06/04 05:31:13;;;;;;;1.17;1.10;;;20.20;99.90;;;;;;5037994;28;20182;-82
2022/06/04 05:33:39;;;;;;;1.80;0.83;;;20.30;99.90;;;;;;5036304;28;20193;-83
2022/06/04 05:36:05;;;;;;;1.57;0.83;;;20.40;99.90;;;;;;5036074;28;20242;-82
2022/06/04 05:38:34;;;;;;;1.60;1.40;;;20.50;99.90;;;;;;5038591;28;20186;-83
2022/06/04 05:41:03;;;;;;;2.40;1.17;;;20.60;99.90;;;;;;5039341;28;20250;-83
2022/06/04 05:43:29;;;;;;;0.97;0.87;;;20.70;99.90;;;;;;5040219;28;20625;-82
2022/06/04 05:46:03;;;;;;;0.50;0.50;;;20.70;99.90;;;;;;5038383;28;20212;-81
2022/06/04 05:48:29;;;;;;;0.80;0.80;;;20.70;99.90;;;;;;5037043;28;20209;-83
2022/06/04 05:50:57;;;;;;;1.30;1.13;;;20.80;99.90;;;;;;5037116;28;20210;-83
2022/06/04 05:53:23;;;;;;;1.37;1.10;;;20.90;99.90;;;;;;5037685;28;20322;-83
2022/06/04 05:55:50;;;;;;;0.63;0.63;;;21.10;99.90;;;;;;5037809;28;20633;-83
2022/06/04 05:58:16;;;;;;;1.00;0.90;;;21.10;99.90;;;;;;5041376;28;20186;-82
2022/06/04 06:00:43;;;;;;;0.80;0.80;;;21.20;99.90;;;;;;5039822;28;20678;-83
2022/06/04 06:03:09;;;;;;;1.20;1.20;;;21.20;99.90;;;;;;5037443;28;20186;-82
2022/06/04 06:05:44;;;;;;;0.87;0.87;;;21.30;99.90;;;;;;5035127;28;20226;-82
2022/06/04 06:08:10;;;;;;;1.47;1.23;;;21.40;99.90;;;;;;5040489;28;20209;-83
2022/06/04 06:10:41;;;;;;;0.80;0.63;;;21.50;99.90;;;;;;5040157;28;20186;-82
2022/06/04 06:13:06;;;;;;;0.47;0.47;;;21.60;99.90;;;;;;5037108;28;20554;-83
2022/06/04 06:15:33;;;;;;;1.57;0.70;;;21.80;99.90;;;;;;5036689;28;20237;-83
2022/06/04 06:17:59;;;;;;;1.03;0.87;;;22.00;99.90;;;;;;5035226;28;20186;-83
2022/06/04 06:20:24;;;;;;;1.00;1.00;;;22.30;99.90;;;;;;5039024;28;20240;-82
2022/06/04 06:22:50;;;;;;;0.60;0.60;;;22.40;99.90;;;;;;5031609;28;20191;-83
2022/06/04 06:25:16;;;;;;;1.03;0.93;;;22.50;99.90;;;;;;5034960;28;20259;-83
2022/06/04 06:27:42;;;;;;;0.60;0.60;;;22.70;99.90;;;;;;5030323;28;20844;-81
2022/06/04 06:30:08;;;;;;;1.07;1.07;;;22.90;99.90;;;;;;5037289;28;20194;-82
2022/06/04 06:32:34;;;;;;;1.00;0.90;;;22.90;99.90;;;;;;5041592;28;20182;-81
2022/06/04 06:35:00;;;;;;;1.53;1.43;;;23.00;99.90;;;;;;5039292;28;20933;-82
2022/06/04 06:37:25;;;;;;;0.60;0.60;;;23.00;99.90;;;;;;5040516;28;20188;-81
2022/06/04 06:39:53;;;;;;;0.77;0.77;;;23.00;99.90;;;;;;5038290;28;20550;-81
2022/06/04 06:42:18;;;;;;;0.60;0.60;;;23.20;99.90;;;;;;5036621;28;20250;-80
2022/06/04 06:44:44;;;;;;;1.00;0.90;;;23.40;99.90;;;;;;5037346;28;20242;-81
2022/06/04 06:47:10;;;;;;;1.87;1.60;;;22.60;99.90;;;;;;5036223;28;20675;-81
2022/06/04 06:49:36;;;;;;;2.13;1.40;;;22.10;99.90;;;;;;5038961;28;20599;-81
2022/06/04 06:52:03;;;;;;;0.97;0.97;;;21.50;99.90;;;;;;5036363;28;20565;-84
2022/06/04 06:54:32;;;;;;;1.50;1.33;;;21.50;99.90;;;;;;5039084;28;20189;-81
2022/06/04 06:56:58;;;;;;;1.40;1.17;;;21.40;99.90;;;;;;5038148;28;20655;-82
2022/06/04 06:59:25;;;;;;;1.13;1.00;;;21.40;99.90;;;;;;5036469;28;20186;-81
2022/06/04 07:01:51;;;;;;;0.70;0.70;;;21.80;99.90;;;;;;5036656;28;20693;-81
2022/06/04 07:04:19;;;;;;;1.87;1.20;;;22.00;99.90;;;;;;5036475;28;20186;-82
2022/06/04 07:06:47;;;;;;;1.77;0.90;;;22.00;99.90;;;;;;5036096;28;20221;-82
2022/06/04 07:09:16;;;;;;;1.13;1.03;;;22.00;99.90;;;;;;5035889;28;20181;-81
2022/06/04 07:11:42;;;;;;;0.70;0.70;;;22.20;99.90;;;;;;5037297;28;20185;-81
2022/06/04 07:14:08;;;;;;;1.27;0.50;;;22.60;99.90;;;;;;5036282;28;20205;-82
2022/06/04 07:16:34;;;;;;;1.40;1.30;;;22.90;99.90;;;;;;5035652;28;20213;-81
2022/06/04 07:19:00;;;;;;;0.87;0.70;;;23.30;99.90;;;;;;5036543;28;20182;-81
2022/06/04 07:21:26;;;;;;;0.50;0.50;;;23.40;99.90;;;;;;5036539;28;20603;-82
2022/06/04 07:23:53;;;;;;;0.63;0.57;;;23.40;99.90;;;;;;5035577;28;20186;-82
2022/06/04 07:26:19;;;;;;;1.23;0.90;;;23.10;99.90;;;;;;5037917;28;20217;-82
2022/06/04 07:28:45;;;;;;;0.70;0.70;;;22.70;99.90;;;;;;5034522;28;20262;-82
2022/06/04 07:31:12;;;;;;;1.93;0.93;;;22.90;99.90;;;;;;5035325;28;20239;-81
2022/06/04 07:33:41;;;;;;;1.50;1.40;;;22.60;99.90;;;;;;5033705;28;20185;-82
2022/06/04 07:36:06;;;;;;;1.50;1.20;;;22.30;99.90;;;;;;5034897;28;20341;-82
2022/06/04 07:38:32;;;;;;;1.03;1.03;;;22.30;99.90;;;;;;5035763;28;20216;-82
2022/06/04 07:40:57;;;;;;;1.00;0.90;;;22.20;99.90;;;;;;5035785;28;20204;-82
2022/06/04 07:43:23;;;;;;;0.73;0.73;;;22.80;99.90;;;;;;5036306;28;20246;-83
2022/06/04 07:45:49;;;;;;;0.50;0.50;;;23.30;99.90;;;;;;5034973;28;20278;-82
2022/06/04 07:48:14;;;;;;;1.77;0.67;;;23.60;99.90;;;;;;5032516;28;20686;-82
2022/06/04 07:50:40;;;;;;;0.70;0.70;;;24.10;99.90;;;;;;5030041;28;20195;-81
2022/06/04 07:53:06;;;;;;;0.93;0.90;;;24.40;99.90;;;;;;5033564;28;20211;-82
2022/06/04 07:55:32;;;;;;;0.63;0.63;;;24.50;99.90;;;;;;5032791;28;20206;-81
2022/06/04 07:57:57;;;;;;;0.50;0.50;;;24.90;99.90;;;;;;5030965;28;20182;-81
2022/06/04 08:00:24;;;;;;;1.43;0.90;;;25.00;99.90;;;;;;5034717;28;20243;-81
2022/06/04 08:02:53;;;;;;;0.60;0.60;;;24.90;99.90;;;;;;5033935;28;20281;-82
2022/06/04 08:05:19;;;;;;;0.50;0.50;;;25.10;99.90;;;;;;5030222;28;20229;-82
2022/06/04 08:07:45;;;;;;;0.57;0.57;;;25.30;99.90;;;;;;5031930;28;20210;-81
2022/06/04 08:10:11;;;;;;;1.30;0.77;;;25.20;99.90;;;;;;5032472;28;20690;-81
2022/06/04 08:13:14;;;;;;;0.83;0.60;;;24.60;99.90;;;;;;5031932;28;20285;-81
2022/06/04 08:15:29;;;;;;;0.50;0.50;;;24.40;99.90;;;;;;5031948;28;20209;-82
2022/06/04 08:17:55;;;;;;;0.50;0.50;;;24.00;99.90;;;;;;5032783;28;20316;-81
2022/06/04 08:20:21;;;;;;;0.57;0.57;;;24.40;99.90;;;;;;5031985;28;20186;-80
2022/06/04 08:22:47;;;;;;;0.60;0.60;;;24.50;99.90;;;;;;5033659;28;20273;-81
2022/06/04 08:25:13;;;;;;;0.70;0.70;;;25.00;99.90;;;;;;5030173;28;20288;-80
2022/06/04 08:27:39;;;;;;;1.07;0.77;;;25.50;99.90;;;;;;5046836;28;20206;-81
2022/06/04 08:30:05;;;;;;;0.50;0.50;;;25.40;99.90;;;;;;5032583;28;20209;-81
2022/06/04 08:32:32;;;;;;;0.57;0.57;;;25.60;99.90;;;;;;5032442;28;20194;-81
2022/06/04 08:34:57;;;;;;;1.07;0.90;;;25.50;99.90;;;;;;5030348;28;20224;-80
2022/06/04 08:37:23;;;;;;;0.83;0.83;;;26.20;99.90;;;;;;5033288;28;20651;-80
2022/06/04 08:39:49;;;;;;;1.40;1.10;;;27.00;99.90;;;;;;5032967;28;20197;-81
2022/06/04 08:42:50;;;;;;;1.17;0.80;;;26.40;99.90;;;;;;5032677;28;20185;-82
2022/06/04 08:45:15;;;;;;;0.60;0.60;;;26.50;99.90;;;;;;5033449;28;20667;-81
2022/06/04 08:47:47;;;;;;;0.60;0.60;;;27.00;99.90;;;;;;5032332;28;20268;-81
2022/06/04 08:50:19;;;;;;;0.63;0.57;;;26.80;99.90;;;;;;5037675;28;20191;-82
2022/06/04 08:52:48;;;;;;;0.80;0.80;;;26.70;99.90;;;;;;5033192;28;20217;-81
2022/06/04 08:58:40;;;;;;;1.00;1.00;;;27.40;99.90;;;;;;5035321;28;20188;-81
2022/06/04 09:01:37;;;;;;;0.80;0.70;;;26.60;99.90;;;;;;5030050;28;20651;-80
2022/06/04 09:04:29;;;;;;;0.90;0.90;;;26.20;99.90;;;;;;5021910;28;20198;-80
2022/06/04 09:07:00;;;;;;;0.70;0.70;;;25.80;99.90;;;;;;5037726;28;20229;-81
2022/06/04 09:09:41;;;;;;;0.67;0.67;;;26.10;99.90;;;;;;5041669;28;20314;-81
2022/06/04 09:12:24;;;;;;;1.30;0.80;;;26.10;99.90;;;;;;5054539;28;20205;-80
2022/06/04 09:14:58;;;;;;;1.23;0.57;;;25.70;99.90;;;;;;5040531;28;20205;-81
2022/06/04 09:17:32;;;;;;;0.60;0.60;;;26.00;99.90;;;;;;5040283;28;21183;-81
2022/06/04 09:19:58;;;;;;;0.87;0.87;;;26.20;99.90;;;;;;5041406;28;20290;-81
2022/06/04 09:22:33;;;;;;;0.63;0.63;;;25.90;99.90;;;;;;5041512;28;20761;-81
2022/06/04 09:24:59;;;;;;;0.97;0.50;;;25.90;99.90;;;;;;5039621;28;20202;-81
2022/06/04 09:28:02;;;;;;;0.60;0.60;;;25.90;99.90;;;;;;5039771;28;20198;-81
2022/06/04 09:30:35;;;;;;;0.60;0.60;;;25.90;99.90;;;;;;5039899;28;20251;-80
2022/06/04 09:33:33;;;;;;;0.70;0.67;;;25.90;99.90;;;;;;5040217;28;20188;-81
2022/06/04 09:35:59;;;;;;;0.93;0.60;;;25.70;99.90;;;;;;5038696;28;20225;-80
2022/06/04 09:38:31;;;;;;;1.53;1.10;;;25.40;99.90;;;;;;5037431;28;20235;-80
2022/06/04 09:41:05;;;;;;;0.47;0.47;;;24.80;99.90;;;;;;5033512;28;20331;-80
2022/06/04 09:43:32;;;;;;;0.50;0.50;;;25.00;99.90;;;;;;5033018;28;20181;-79
2022/06/04 09:46:02;;;;;;;0.80;0.80;;;24.60;99.90;;;;;;5034118;28;20210;-82
2022/06/04 09:48:38;;;;;;;0.67;0.67;;;25.10;99.90;;;;;;5034980;28;20256;-81
2022/06/04 09:51:13;;;;;;;1.40;1.30;;;24.90;99.90;;;;;;5033458;28;20209;-81
2022/06/04 09:53:46;;;;;;;1.27;1.00;;;24.90;99.90;;;;;;5035314;28;20666;-81
2022/06/04 09:56:16;;;;;;;0.70;0.70;;;24.90;99.90;;;;;;5035160;28;20793;-82
2022/06/04 09:58:47;;;;;;;0.50;0.50;;;25.60;99.90;;;;;;5034350;28;20196;-82
2022/06/04 10:01:18;;;;;;;0.47;0.47;;;25.50;99.90;;;;;;5038274;28;20193;-85
2022/06/04 10:03:58;;;;;;;1.03;0.60;;;26.20;99.90;;;;;;5040864;28;20187;-84
2022/06/04 10:06:26;;;;;;;0.63;0.60;;;26.40;99.90;;;;;;5038483;28;20283;-85
2022/06/04 10:12:03;;;;;;;0.40;0.40;;;26.40;99.90;;;;;;5041222;28;20673;-84
2022/06/04 10:14:38;;;;;;;0.50;0.50;;;27.10;99.90;;;;;;5039577;28;20704;-85
2022/06/04 10:17:15;;;;;;;0.57;0.57;;;26.30;99.90;;;;;;5040375;28;20190;-86
2022/06/04 10:19:53;;;;;;;1.23;1.03;;;25.70;99.90;;;;;;5041562;28;20235;-84
2022/06/04 10:22:19;;;;;;;1.00;0.90;;;25.70;99.90;;;;;;5036765;28;20276;-83
2022/06/04 10:24:56;;;;;;;0.67;0.67;;;25.70;99.90;;;;;;5037507;28;20705;-84
2022/06/04 10:27:44;;;;;;;0.80;0.80;;;25.40;99.90;;;;;;5039694;28;20232;-83
2022/06/04 10:30:10;;;;;;;0.83;0.73;;;26.30;99.90;;;;;;5036967;28;20181;-84
2022/06/04 10:33:05;;;;;;;0.93;0.90;;;26.60;99.90;;;;;;5040515;28;20285;-83
2022/06/04 10:36:02;;;;;;;0.63;0.63;;;27.70;99.90;;;;;;5036771;28;20682;-80
2022/06/04 10:38:48;;;;;;;0.83;0.83;;;27.00;99.90;;;;;;5039299;28;20190;-80
2022/06/04 10:41:23;;;;;;;1.67;1.10;;;26.40;99.90;;;;;;5034540;28;20186;-81
2022/06/04 10:44:28;;;;;;;0.60;0.57;;;26.20;99.90;;;;;;5036592;28;20193;-81
2022/06/04 10:46:54;;;;;;;1.33;0.70;;;26.80;99.90;;;;;;5037040;28;20296;-84
2022/06/04 10:49:41;;;;;;;1.13;0.90;;;26.50;99.90;;;;;;5040401;28;20222;-82
2022/06/04 10:52:24;;;;;;;1.07;1.00;;;26.40;99.90;;;;;;5040730;28;20217;-82
2022/06/04 10:55:12;;;;;;;0.60;0.60;;;26.80;99.90;;;;;;5037766;28;20206;-82
2022/06/04 10:57:50;;;;;;;0.87;0.87;;;26.60;99.90;;;;;;5037715;28;20687;-83
2022/06/04 11:00:36;;;;;;;0.67;0.67;;;27.30;99.90;;;;;;5036231;28;20185;-81
2022/06/04 11:03:15;;;;;;;1.25;1.00;;;27.50;99.90;;;;;;5036450;28;20183;-81
2022/06/04 11:05:50;;;;;;;0.80;0.80;;;26.80;99.90;;;;;;5035331;28;20316;-80
2022/06/04 11:08:26;;;;;;;0.80;0.80;;;26.80;99.90;;;;;;5039113;28;20214;-80
2022/06/04 11:11:03;;;;;;;0.57;0.53;;;27.30;99.90;;;;;;5052019;28;20259;-81
2022/06/04 11:13:36;;;;;;;0.90;0.90;;;26.90;99.90;;;;;;5034223;28;20183;-80
2022/06/04 11:16:04;;;;;;;0.70;0.70;;;26.90;99.90;;;;;;5035108;28;20294;-80
2022/06/04 11:18:49;;;;;;;0.77;0.77;;;27.10;99.90;;;;;;5036120;28;20197;-80
2022/06/04 11:21:40;;;;;;;0.60;0.60;;;27.30;99.90;;;;;;5037516;28;20189;-81
2022/06/04 11:24:26;;;;;;;0.73;0.70;;;27.90;99.90;;;;;;5035971;28;20181;-81
2022/06/04 11:27:10;;;;;;;1.00;0.67;;;28.20;99.90;;;;;;5031710;28;20247;-80
2022/06/04 11:29:36;;;;;;;0.63;0.63;;;28.00;99.90;;;;;;5035716;28;20183;-80
2022/06/04 11:32:11;;;;;;;0.43;0.43;;;27.30;99.90;;;;;;5036473;28;20186;-81
2022/06/04 11:34:55;;;;;;;0.68;0.68;;;27.20;99.90;;;;;;5035993;28;20593;-80
2022/06/04 11:37:30;;;;;;;0.70;0.70;;;27.20;99.90;;;;;;5034066;28;20245;-80
2022/06/04 11:40:05;;;;;;;0.80;0.80;;;27.20;99.90;;;;;;5033808;28;20227;-80
2022/06/04 11:42:47;;;;;;;1.00;0.73;;;28.00;99.90;;;;;;5035190;28;20192;-80
2022/06/04 11:45:25;;;;;;;0.60;0.60;;;28.60;99.90;;;;;;5033638;28;20210;-80
2022/06/04 11:47:59;;;;;;;0.60;0.60;;;28.50;99.90;;;;;;5035176;28;20206;-80
2022/06/04 11:51:14;;;;;;;0.80;0.80;;;29.40;99.90;;;;;;5034049;28;20182;-80
2022/06/04 11:53:55;;;;;;;0.55;0.55;;;28.70;99.90;;;;;;5032436;28;20190;-80
2022/06/04 11:56:45;;;;;;;0.95;0.57;;;27.90;99.90;;;;;;5033256;28;20594;-80
2022/06/04 11:59:38;;;;;;;0.95;0.90;;;28.20;99.90;;;;;;5030777;28;20215;-80
2022/06/04 12:02:13;;;;;;;0.63;0.63;;;27.80;99.90;;;;;;5035272;28;20708;-80
2022/06/04 12:04:56;;;;;;;0.70;0.70;;;28.20;99.90;;;;;;5033326;28;20219;-80
2022/06/04 12:07:40;;;;;;;0.35;0.35;;;28.20;99.90;;;;;;5034735;28;20296;-80
2022/06/04 12:10:21;;;;;;;0.73;0.73;;;28.50;99.90;;;;;;5032459;28;20291;-80
2022/06/04 12:12:53;;;;;;;0.68;0.68;;;28.90;99.90;;;;;;5047742;28;20220;-80
2022/06/04 12:15:53;;;;;;;0.52;0.50;;;28.10;99.90;;;;;;5035712;28;20234;-80
2022/06/04 12:19:00;;;;;;;1.15;1.05;;;28.60;99.90;;;;;;5037493;28;20189;-80
2022/06/04 12:24:34;;;;;;;0.38;0.38;;;27.90;99.90;;;;;;5037695;28;20629;-80
2022/06/04 12:27:27;;;;;;;1.23;0.77;;;28.10;99.90;;;;;;5037751;28;20229;-80
2022/06/04 12:29:55;;;;;;;0.77;0.77;;;28.40;99.90;;;;;;5029391;28;20194;-81
2022/06/04 12:32:31;;;;;;;0.43;0.43;;;28.30;99.90;;;;;;5033029;28;20708;-80
2022/06/04 12:35:09;;;;;;;1.13;1.02;;;28.20;99.90;;;;;;5034846;28;20213;-80
2022/06/04 12:37:37;;;;;;;0.60;0.60;;;28.00;99.90;;;;;;5034183;28;20525;-79
2022/06/04 12:40:23;;;;;;;0.60;0.43;;;28.00;99.90;;;;;;5031056;28;20174;-80
2022/06/04 12:43:07;;;;;;;1.10;0.87;;;28.10;99.90;;;;;;5028367;28;20545;-80
2022/06/04 12:45:45;;;;;;;0.77;0.77;;;27.70;99.90;;;;;;5032909;28;20201;-81
2022/06/04 12:48:29;;;;;;;0.60;0.60;;;27.80;99.90;;;;;;5033964;28;20236;-81
2022/06/04 12:51:03;;;;;;;0.85;0.82;;;28.00;99.90;;;;;;5029189;28;20190;-82
2022/06/04 12:53:31;;;;;;;1.05;0.95;;;28.20;99.90;;;;;;5033499;28;20272;-81
2022/06/04 12:56:06;;;;;;;0.70;0.70;;;27.90;99.90;;;;;;5034218;28;20210;-81
2022/06/04 12:58:48;;;;;;;0.47;0.47;;;27.30;99.90;;;;;;5032532;28;20190;-81
2022/06/04 13:01:18;;;;;;;0.35;0.35;;;26.90;99.90;;;;;;5033500;28;20654;-81
2022/06/04 13:03:45;;;;;;;1.20;1.10;;;27.30;99.90;;;;;;5034625;28;20217;-81
2022/06/04 13:06:31;;;;;;;0.75;0.75;;;27.50;99.90;;;;;;5033290;28;20235;-81
2022/06/04 13:09:09;;;;;;;0.40;0.40;;;27.00;99.90;;;;;;5032187;28;20218;-81
2022/06/04 13:11:49;;;;;;;0.40;0.40;;;27.10;99.90;;;;;;5031677;28;20185;-81
2022/06/04 13:14:32;;;;;;;0.43;0.40;;;27.10;99.90;;;;;;5031512;28;20170;-81
2022/06/04 13:17:11;;;;;;;0.98;0.63;;;27.80;99.90;;;;;;5032246;28;20186;-81
2022/06/04 13:19:49;;;;;;;0.43;0.43;;;28.10;99.90;;;;;;5032480;28;20186;-81
2022/06/04 13:22:27;;;;;;;0.82;0.60;;;28.60;99.90;;;;;;5032912;28;20273;-82
2022/06/04 13:24:53;;;;;;;0.68;0.68;;;29.10;99.90;;;;;;5030608;28;20709;-82
2022/06/04 13:27:37;;;;;;;0.77;0.70;;;28.60;99.90;;;;;;5031693;28;20214;-81
2022/06/04 13:30:03;;;;;;;0.40;0.40;;;28.70;99.90;;;;;;5032292;28;20184;-81
2022/06/04 13:32:32;;;;;;;0.50;0.50;;;29.40;99.90;;;;;;5034704;28;20942;-82